createdAt,value
2018-05-27T00:01:42.719Z,17.37
2018-05-27T00:04:10.145Z,17.10
2018-05-27T00:06:37.505Z,16.97
2018-05-27T00:09:05.754Z,16.27
2018-05-27T00:11:33.176Z,16.70
2018-05-27T00:14:00.612Z,17.47
2018-05-27T00:16:28.017Z,16.37
2018-05-27T00:18:55.453Z,16.20
2018-05-27T00:21:22.872Z,15.50
2018-05-27T00:23:50.244Z,15.87
2018-05-27T00:26:17.667Z,15.60
2018-05-27T00:28:45.080Z,15.70
2018-05-27T00:31:12.492Z,15.00
2018-05-27T00:33:39.890Z,16.60
2018-05-27T00:36:07.320Z,16.50
2018-05-27T00:38:34.682Z,15.90
2018-05-27T00:41:02.081Z,16.00
2018-05-27T00:43:29.488Z,16.37
2018-05-27T00:45:56.920Z,15.40
2018-05-27T00:48:24.317Z,16.00
2018-05-27T00:50:51.702Z,15.53
2018-05-27T00:53:19.091Z,16.37
2018-05-27T00:55:46.466Z,16.90
2018-05-27T00:58:13.827Z,16.47
2018-05-27T01:00:41.252Z,16.77
2018-05-27T01:03:08.639Z,17.47
2018-05-27T01:05:36.029Z,17.30
2018-05-27T01:08:03.544Z,15.40
2018-05-27T01:10:30.943Z,15.80
2018-05-27T01:12:58.372Z,16.30
2018-05-27T01:15:25.763Z,16.00
2018-05-27T01:17:53.134Z,15.63
2018-05-27T01:20:20.553Z,15.70
2018-05-27T01:22:47.961Z,15.93
2018-05-27T01:25:15.470Z,15.70
2018-05-27T01:27:42.897Z,16.17
2018-05-27T01:30:10.254Z,15.50
2018-05-27T01:32:37.671Z,16.33
2018-05-27T01:35:05.057Z,17.20
2018-05-27T01:37:32.505Z,16.27
2018-05-27T01:39:59.858Z,15.97
2018-05-27T01:42:27.254Z,17.10
2018-05-27T01:44:54.669Z,17.47
2018-05-27T01:47:22.040Z,17.90
2018-05-27T01:49:49.434Z,17.87
2018-05-27T01:52:16.835Z,17.83
2018-05-27T01:54:44.226Z,17.93
2018-05-27T01:57:11.608Z,17.93
2018-05-27T01:59:39.019Z,18.87
2018-05-27T02:02:06.434Z,18.73
2018-05-27T02:04:33.820Z,19.50
2018-05-27T02:07:01.256Z,19.50
2018-05-27T02:09:28.676Z,19.50
2018-05-27T02:11:56.063Z,21.60
2018-05-27T02:14:23.477Z,21.90
2018-05-27T02:16:50.843Z,20.70
2018-05-27T02:19:18.287Z,21.00
2018-05-27T02:21:45.687Z,22.97
2018-05-27T02:24:13.069Z,22.47
2018-05-27T02:26:40.456Z,21.83
2018-05-27T02:29:07.884Z,21.63
2018-05-27T02:31:35.235Z,22.30
2018-05-27T02:34:02.683Z,22.70
2018-05-27T02:36:30.108Z,20.40
2018-05-27T02:38:57.518Z,21.83
2018-05-27T02:41:24.978Z,21.97
2018-05-27T02:43:52.400Z,21.80
2018-05-27T02:46:19.847Z,21.87
2018-05-27T02:48:47.269Z,22.47
2018-05-27T02:51:15.291Z,23.40
2018-05-27T02:53:42.665Z,23.57
2018-05-27T02:56:10.067Z,23.40
2018-05-27T02:58:37.478Z,23.10
2018-05-27T03:01:04.900Z,24.67
2018-05-27T03:03:32.255Z,24.17
2018-05-27T03:05:59.673Z,24.00
2018-05-27T03:08:27.201Z,23.20
2018-05-27T03:10:54.563Z,24.03
2018-05-27T03:13:21.971Z,24.90
2018-05-27T03:15:49.370Z,24.27
2018-05-27T03:18:16.856Z,23.60
2018-05-27T03:20:44.253Z,22.63
2018-05-27T03:23:11.677Z,22.80
2018-05-27T03:25:39.124Z,23.73
2018-05-27T03:28:06.556Z,24.27
2018-05-27T03:30:33.919Z,22.90
2018-05-27T03:33:01.280Z,23.77
2018-05-27T03:35:28.821Z,23.90
2018-05-27T03:37:56.203Z,23.03
2018-05-27T03:40:23.621Z,24.60
2018-05-27T03:42:50.986Z,21.97
2018-05-27T03:45:18.400Z,24.30
2018-05-27T03:47:45.783Z,23.43
2018-05-27T03:50:13.187Z,23.80
2018-05-27T03:52:40.542Z,24.40
2018-05-27T03:55:07.891Z,23.50
2018-05-27T03:57:35.288Z,23.10
2018-05-27T04:00:02.638Z,23.23
2018-05-27T04:02:30.055Z,24.13
2018-05-27T04:05:03.307Z,22.67
2018-05-27T04:07:36.537Z,23.33
2018-05-27T04:10:04.005Z,23.43
2018-05-27T04:12:31.374Z,23.37
2018-05-27T04:14:58.768Z,23.70
2018-05-27T04:17:26.175Z,23.37
2018-05-27T04:19:53.575Z,23.90
2018-05-27T04:22:20.963Z,23.30
2018-05-27T04:24:48.320Z,23.30
2018-05-27T04:27:15.709Z,24.23
2018-05-27T04:29:43.122Z,22.50
2018-05-27T04:32:10.481Z,22.50
2018-05-27T04:34:37.871Z,22.03
2018-05-27T04:37:05.254Z,22.60
2018-05-27T04:39:32.651Z,24.37
2018-05-27T04:42:00.041Z,23.23
2018-05-27T04:44:27.398Z,23.90
2018-05-27T04:46:54.782Z,23.97
2018-05-27T04:49:22.151Z,24.13
2018-05-27T04:51:49.535Z,23.73
2018-05-27T04:54:16.883Z,23.70
2018-05-27T04:56:44.369Z,23.97
2018-05-27T04:59:13.711Z,23.10
2018-05-27T05:01:41.931Z,23.93
2018-05-27T05:04:09.299Z,23.30
2018-05-27T05:06:36.689Z,24.63
2018-05-27T05:09:04.810Z,23.63
2018-05-27T05:11:32.255Z,25.03
2018-05-27T05:13:59.676Z,24.57
2018-05-27T05:16:27.055Z,24.40
2018-05-27T05:18:54.485Z,24.33
2018-05-27T05:21:21.881Z,24.57
2018-05-27T05:23:49.307Z,24.40
2018-05-27T05:26:16.725Z,25.60
2018-05-27T05:28:44.116Z,24.47
2018-05-27T05:31:11.509Z,24.40
2018-05-27T05:33:38.907Z,23.33
2018-05-27T05:36:06.333Z,24.77
2018-05-27T05:38:34.952Z,24.60
2018-05-27T05:41:02.353Z,24.13
2018-05-27T05:43:29.709Z,23.60
2018-05-27T05:45:57.125Z,23.37
2018-05-27T05:48:24.507Z,23.30
2018-05-27T05:50:51.895Z,25.20
2018-05-27T05:53:19.317Z,23.03
2018-05-27T05:55:46.704Z,25.40
2018-05-27T05:58:14.071Z,23.60
2018-05-27T06:00:41.460Z,23.97
2018-05-27T06:03:08.852Z,23.37
2018-05-27T06:05:36.204Z,23.17
2018-05-27T06:08:03.597Z,24.53
2018-05-27T06:10:31.019Z,24.33
2018-05-27T06:12:58.448Z,24.30
2018-05-27T06:15:25.801Z,24.07
2018-05-27T06:17:53.185Z,24.60
2018-05-27T06:20:20.613Z,25.07
2018-05-27T06:22:48.010Z,23.20
2018-05-27T06:25:15.398Z,23.83
2018-05-27T06:27:42.784Z,23.70
2018-05-27T06:30:10.187Z,25.20
2018-05-27T06:32:37.603Z,25.03
2018-05-27T06:35:04.959Z,24.33
2018-05-27T06:37:32.352Z,24.83
2018-05-27T06:39:59.884Z,21.70
2018-05-27T06:42:27.372Z,22.70
2018-05-27T06:44:54.791Z,22.77
2018-05-27T06:47:22.224Z,23.33
2018-05-27T06:49:49.629Z,22.50
2018-05-27T06:52:17.093Z,23.00
2018-05-27T06:54:44.498Z,23.03
2018-05-27T06:57:11.892Z,23.57
2018-05-27T06:59:39.285Z,22.63
2018-05-27T07:02:06.685Z,22.80
2018-05-27T07:04:34.148Z,22.57
2018-05-27T07:07:01.494Z,21.17
2018-05-27T07:09:28.843Z,20.03
2018-05-27T07:11:56.252Z,19.47
2018-05-27T07:14:23.628Z,18.90
2018-05-27T07:16:51.040Z,18.13
2018-05-27T07:19:18.419Z,19.13
2018-05-27T07:21:45.835Z,18.10
2018-05-27T07:24:13.249Z,16.63
2018-05-27T07:26:40.595Z,16.03
2018-05-27T07:29:07.988Z,16.40
2018-05-27T07:31:35.408Z,14.90
2018-05-27T07:34:02.772Z,15.37
2018-05-27T07:36:30.192Z,13.43
2018-05-27T07:38:57.596Z,13.40
2018-05-27T07:41:24.996Z,15.23
2018-05-27T07:43:52.432Z,14.30
2018-05-27T07:46:19.811Z,14.20
2018-05-27T07:48:47.270Z,13.70
2018-05-27T07:51:14.718Z,14.47
2018-05-27T07:53:42.168Z,15.43
2018-05-27T07:56:09.531Z,13.20
2018-05-27T07:58:37.004Z,12.87
2018-05-27T08:01:04.409Z,13.50
2018-05-27T08:03:31.858Z,13.43
2018-05-27T08:06:00.242Z,13.97
2018-05-27T08:08:27.606Z,13.53
2018-05-27T08:10:55.102Z,13.40
2018-05-27T08:13:22.498Z,13.43
2018-05-27T08:15:49.989Z,14.23
2018-05-27T08:18:17.343Z,13.20
2018-05-27T08:20:44.766Z,14.23
2018-05-27T08:23:12.158Z,13.80
2018-05-27T08:25:39.540Z,13.13
2018-05-27T08:28:06.927Z,12.13
2018-05-27T08:30:34.347Z,13.40
2018-05-27T08:33:01.703Z,13.23
2018-05-27T08:35:29.087Z,12.93
2018-05-27T08:37:56.480Z,15.50
2018-05-27T08:40:23.859Z,13.10
2018-05-27T08:42:51.277Z,13.90
2018-05-27T08:45:18.696Z,13.23
2018-05-27T08:47:46.100Z,13.40
2018-05-27T08:50:13.518Z,14.10
2018-05-27T08:52:40.879Z,13.30
2018-05-27T08:55:08.296Z,13.87
2018-05-27T08:57:35.722Z,11.97
2018-05-27T09:00:03.693Z,12.37
2018-05-27T09:02:31.084Z,12.70
2018-05-27T09:04:58.471Z,13.20
2018-05-27T09:07:25.843Z,14.33
2018-05-27T09:09:53.223Z,11.90
2018-05-27T09:12:20.584Z,12.67
2018-05-27T09:14:47.967Z,12.40
2018-05-27T09:17:15.388Z,12.70
2018-05-27T09:19:42.862Z,12.80
2018-05-27T09:22:10.258Z,13.00
2018-05-27T09:24:37.643Z,12.77
2018-05-27T09:27:05.061Z,12.80
2018-05-27T09:29:32.447Z,12.87
2018-05-27T09:31:59.876Z,12.43
2018-05-27T09:34:27.302Z,12.70
2018-05-27T09:36:54.664Z,12.43
2018-05-27T09:39:22.078Z,12.23
2018-05-27T09:41:49.484Z,12.10
2018-05-27T09:44:16.936Z,12.07
2018-05-27T09:46:44.345Z,12.33
2018-05-27T09:49:11.797Z,11.97
2018-05-27T09:51:39.265Z,11.93
2018-05-27T09:54:06.688Z,11.00
2018-05-27T09:56:34.123Z,12.27
2018-05-27T09:59:01.524Z,13.37
2018-05-27T10:01:28.905Z,12.20
2018-05-27T10:03:56.311Z,12.43
2018-05-27T10:06:23.737Z,12.70
2018-05-27T10:08:51.156Z,13.20
2018-05-27T10:11:18.523Z,12.27
2018-05-27T10:13:45.930Z,11.40
2018-05-27T10:16:13.368Z,11.93
2018-05-27T10:18:40.777Z,12.17
2018-05-27T10:21:08.167Z,11.80
2018-05-27T10:23:35.551Z,12.70
2018-05-27T10:26:03.061Z,11.57
2018-05-27T10:28:30.514Z,12.83
2018-05-27T10:30:57.938Z,12.27
2018-05-27T10:33:25.334Z,12.10
2018-05-27T10:35:52.717Z,11.23
2018-05-27T10:38:20.121Z,11.30
2018-05-27T10:40:47.477Z,11.80
2018-05-27T10:43:14.974Z,12.50
2018-05-27T10:45:42.426Z,12.30
2018-05-27T10:48:09.822Z,11.80
2018-05-27T10:50:37.187Z,11.90
2018-05-27T10:53:04.600Z,12.03
2018-05-27T10:55:31.965Z,12.13
2018-05-27T10:57:59.352Z,11.73
2018-05-27T11:00:26.746Z,11.57
2018-05-27T11:02:54.173Z,11.87
2018-05-27T11:05:21.624Z,11.87
2018-05-27T11:07:49.224Z,11.53
2018-05-27T11:10:16.645Z,11.90
2018-05-27T11:12:44.051Z,11.90
2018-05-27T11:15:11.474Z,11.47
2018-05-27T11:17:38.867Z,11.70
2018-05-27T11:20:06.347Z,12.07
2018-05-27T11:22:33.749Z,11.63
2018-05-27T11:25:01.157Z,11.23
2018-05-27T11:27:28.539Z,11.07
2018-05-27T11:29:55.968Z,11.50
2018-05-27T11:32:23.333Z,10.60
2018-05-27T11:34:50.768Z,12.23
2018-05-27T11:37:18.197Z,10.70
2018-05-27T11:39:45.630Z,11.40
2018-05-27T11:42:13.061Z,10.97
2018-05-27T11:44:40.484Z,10.47
2018-05-27T11:47:07.925Z,11.10
2018-05-27T11:49:35.385Z,10.97
2018-05-27T11:52:02.835Z,11.57
2018-05-27T11:54:30.250Z,10.40
2018-05-27T11:56:57.692Z,10.63
2018-05-27T11:59:25.083Z,11.10
2018-05-27T12:01:52.438Z,11.20
2018-05-27T12:04:19.908Z,10.67
2018-05-27T12:06:47.295Z,10.70
2018-05-27T12:09:14.841Z,11.03
2018-05-27T12:11:42.212Z,7.60
2018-05-27T12:14:09.566Z,7.60
2018-05-27T12:16:37.037Z,7.43
2018-05-27T12:19:04.477Z,7.53
2018-05-27T12:21:31.814Z,7.93
2018-05-27T12:23:59.229Z,10.33
2018-05-27T12:26:26.633Z,9.90
2018-05-27T12:28:54.083Z,10.17
2018-05-27T12:31:21.484Z,7.83
2018-05-27T12:33:48.858Z,7.80
2018-05-27T12:36:16.285Z,7.40
2018-05-27T12:38:43.678Z,7.20
2018-05-27T12:41:11.058Z,7.47
2018-05-27T12:43:38.616Z,8.77
2018-05-27T12:46:06.067Z,9.03
2018-05-27T12:48:33.472Z,9.23
2018-05-27T12:51:00.911Z,9.70
2018-05-27T12:53:28.320Z,8.47
2018-05-27T12:55:55.738Z,9.30
2018-05-27T12:58:23.196Z,9.03
2018-05-27T13:00:50.588Z,8.30
2018-05-27T13:03:17.966Z,8.70
2018-05-27T13:05:45.376Z,8.63
2018-05-27T13:08:12.810Z,9.23
2018-05-27T13:10:40.212Z,8.20
2018-05-27T13:13:07.559Z,8.60
2018-05-27T13:15:34.980Z,7.80
2018-05-27T13:18:02.343Z,7.80
2018-05-27T13:20:29.744Z,7.70
2018-05-27T13:22:57.337Z,7.67
2018-05-27T13:25:24.721Z,6.97
2018-05-27T13:27:52.185Z,6.60
2018-05-27T13:30:19.696Z,6.33
2018-05-27T13:32:47.112Z,5.63
2018-05-27T13:35:14.595Z,5.43
2018-05-27T13:37:41.979Z,5.60
2018-05-27T13:40:09.353Z,6.43
2018-05-27T13:42:36.767Z,6.00
2018-05-27T13:45:04.241Z,6.00
2018-05-27T13:47:31.574Z,6.77
2018-05-27T13:49:58.921Z,6.30
2018-05-27T13:52:26.314Z,6.60
2018-05-27T13:54:53.696Z,7.23
2018-05-27T13:57:21.105Z,6.13
2018-05-27T13:59:48.624Z,6.33
2018-05-27T14:02:16.035Z,6.20
2018-05-27T14:04:43.455Z,6.00
2018-05-27T14:07:10.871Z,6.03
2018-05-27T14:09:38.266Z,7.23
2018-05-27T14:12:05.691Z,6.53
2018-05-27T14:14:33.196Z,6.10
2018-05-27T14:17:00.656Z,7.30
2018-05-27T14:19:28.101Z,6.70
2018-05-27T14:21:55.516Z,7.10
2018-05-27T14:24:22.906Z,8.20
2018-05-27T14:26:50.586Z,7.73
2018-05-27T14:29:18.017Z,7.90
2018-05-27T14:31:45.441Z,7.97
2018-05-27T14:34:12.824Z,7.93
2018-05-27T14:36:40.214Z,8.60
2018-05-27T14:39:07.656Z,9.00
2018-05-27T14:41:35.044Z,8.70
2018-05-27T14:44:02.456Z,10.40
2018-05-27T14:46:29.908Z,9.70
2018-05-27T14:48:57.250Z,9.67
2018-05-27T14:51:24.641Z,10.43
2018-05-27T14:53:52.215Z,10.30
2018-05-27T14:56:19.846Z,9.90
2018-05-27T14:58:47.260Z,10.80
2018-05-27T15:01:14.690Z,11.70
2018-05-27T15:03:42.116Z,9.50
2018-05-27T15:06:09.610Z,10.03
2018-05-27T15:08:37.024Z,10.60
2018-05-27T15:11:04.449Z,9.17
2018-05-27T15:13:31.832Z,9.70
2018-05-27T15:15:59.216Z,9.30
2018-05-27T15:18:26.703Z,9.70
2018-05-27T15:20:54.082Z,10.27
2018-05-27T15:23:21.473Z,9.60
2018-05-27T15:25:48.891Z,10.03
2018-05-27T15:28:16.416Z,9.80
2018-05-27T15:30:43.797Z,9.50
2018-05-27T15:33:11.216Z,10.27
2018-05-27T15:35:38.576Z,9.77
2018-05-27T15:38:06.913Z,9.57
2018-05-27T15:40:34.290Z,10.40
2018-05-27T15:43:01.652Z,9.93
2018-05-27T15:45:29.145Z,10.00
2018-05-27T15:47:56.586Z,10.20
2018-05-27T15:50:23.991Z,9.50
2018-05-27T15:52:51.508Z,9.43
2018-05-27T15:55:18.932Z,10.00
2018-05-27T15:57:46.320Z,9.83
2018-05-27T16:00:13.706Z,9.77
2018-05-27T16:02:41.133Z,9.73
2018-05-27T16:05:08.537Z,10.10
2018-05-27T16:07:35.967Z,9.90
2018-05-27T16:10:03.381Z,9.30
2018-05-27T16:12:30.815Z,9.87
2018-05-27T16:14:58.245Z,9.47
2018-05-27T16:17:25.658Z,9.83
2018-05-27T16:19:53.058Z,10.73
2018-05-27T16:22:20.465Z,10.00
2018-05-27T16:24:47.898Z,11.13
2018-05-27T16:27:15.256Z,9.67
2018-05-27T16:29:42.681Z,9.33
2018-05-27T16:32:10.036Z,9.30
2018-05-27T16:34:37.793Z,9.40
2018-05-27T16:37:05.156Z,9.60
2018-05-27T16:39:32.537Z,9.13
2018-05-27T16:42:00.113Z,8.50
2018-05-27T16:44:27.570Z,8.30
2018-05-27T16:46:55.035Z,8.40
2018-05-27T16:49:22.512Z,8.10
2018-05-27T16:51:49.914Z,8.00
2018-05-27T16:54:17.284Z,7.90
2018-05-27T16:56:44.630Z,7.83
2018-05-27T16:59:12.014Z,8.13
2018-05-27T17:01:39.396Z,7.50
2018-05-27T17:04:06.770Z,8.80
2018-05-27T17:06:34.134Z,8.83
2018-05-27T17:09:01.567Z,7.50
2018-05-27T17:11:28.957Z,7.20
2018-05-27T17:13:56.360Z,7.37
2018-05-27T17:16:23.772Z,7.23
2018-05-27T17:18:51.215Z,7.57
2018-05-27T17:21:18.642Z,7.10
2018-05-27T17:23:46.033Z,7.33
2018-05-27T17:26:13.629Z,7.77
2018-05-27T17:28:41.116Z,9.63
2018-05-27T17:31:08.519Z,8.30
2018-05-27T17:33:35.891Z,7.00
2018-05-27T17:36:03.408Z,8.83
2018-05-27T17:38:30.784Z,8.40
2018-05-27T17:40:58.173Z,8.50
2018-05-27T17:43:25.520Z,9.37
2018-05-27T17:45:53.004Z,9.43
2018-05-27T17:48:20.397Z,9.80
2018-05-27T17:50:47.790Z,10.20
2018-05-27T17:53:15.188Z,10.40
2018-05-27T17:55:42.570Z,11.23
2018-05-27T17:58:09.979Z,10.57
2018-05-27T18:00:37.443Z,11.27
2018-05-27T18:03:04.907Z,11.90
2018-05-27T18:05:32.354Z,12.70
2018-05-27T18:07:59.780Z,12.17
2018-05-27T18:10:27.169Z,12.03
2018-05-27T18:12:54.564Z,12.73
2018-05-27T18:15:21.980Z,12.30
2018-05-27T18:17:49.694Z,11.97
2018-05-27T18:20:17.106Z,12.00
2018-05-27T18:22:44.518Z,10.80
2018-05-27T18:25:11.945Z,10.60
2018-05-27T18:27:39.341Z,12.10
2018-05-27T18:30:06.787Z,12.70
2018-05-27T18:32:34.234Z,11.90
2018-05-27T18:35:01.632Z,11.77
2018-05-27T18:37:29.075Z,11.43
2018-05-27T18:39:56.550Z,12.10
2018-05-27T18:42:24.080Z,12.40
2018-05-27T18:44:51.573Z,12.93
2018-05-27T18:47:18.969Z,13.07
2018-05-27T18:49:46.362Z,13.30
2018-05-27T18:52:13.770Z,13.00
2018-05-27T18:54:41.168Z,12.83
2018-05-27T18:57:08.571Z,12.97
2018-05-27T18:59:35.962Z,12.80
2018-05-27T19:02:03.405Z,12.80
2018-05-27T19:04:30.776Z,13.47
2018-05-27T19:06:58.173Z,13.00
2018-05-27T19:09:25.578Z,12.80
2018-05-27T19:11:52.950Z,14.70
2018-05-27T19:14:20.339Z,14.10
2018-05-27T19:16:47.705Z,14.20
2018-05-27T19:19:15.132Z,13.60
2018-05-27T19:21:42.572Z,13.73
2018-05-27T19:24:10.038Z,13.53
2018-05-27T19:26:38.207Z,14.60
2018-05-27T19:29:05.590Z,13.30
2018-05-27T19:31:33.045Z,15.43
2018-05-27T19:34:00.506Z,14.63
2018-05-27T19:36:27.908Z,14.30
2018-05-27T19:38:55.275Z,14.03
2018-05-27T19:41:23.016Z,13.47
2018-05-27T19:43:50.764Z,12.73
2018-05-27T19:46:18.146Z,13.30
2018-05-27T19:48:46.528Z,13.57
2018-05-27T19:51:14.342Z,12.57
2018-05-27T19:53:47.486Z,12.40
2018-05-27T19:56:14.919Z,12.60
2018-05-27T19:58:42.449Z,12.50
2018-05-27T20:01:09.977Z,13.03
2018-05-27T20:03:37.422Z,12.47
2018-05-27T20:06:04.892Z,12.70
2018-05-27T20:08:32.841Z,12.47
2018-05-27T20:11:03.748Z,12.40
2018-05-27T20:13:31.171Z,12.97
2018-05-27T20:15:58.915Z,11.90
2018-05-27T20:18:26.306Z,12.90
2018-05-27T20:20:54.279Z,12.00
2018-05-27T20:23:21.673Z,11.60
2018-05-27T20:25:50.027Z,12.40
2018-05-27T20:28:17.455Z,12.33
2018-05-27T20:30:44.887Z,11.77
2018-05-27T20:33:12.378Z,11.87
2018-05-27T20:35:39.939Z,12.03
2018-05-27T20:38:07.356Z,13.20
2018-05-27T20:40:34.797Z,12.23
2018-05-27T20:43:02.381Z,11.73
2018-05-27T20:45:29.857Z,12.10
2018-05-27T20:47:57.360Z,11.90
2018-05-27T20:50:24.823Z,12.17
2018-05-27T20:52:52.270Z,11.73
2018-05-27T20:55:19.623Z,12.13
2018-05-27T20:57:47.020Z,12.03
2018-05-27T21:00:14.414Z,12.13
2018-05-27T21:02:41.794Z,11.97
2018-05-27T21:05:09.193Z,12.20
2018-05-27T21:07:36.609Z,12.20
2018-05-27T21:10:04.119Z,11.43
2018-05-27T21:12:31.581Z,11.70
2018-05-27T21:14:58.982Z,12.13
2018-05-27T21:17:26.382Z,12.10
2018-05-27T21:19:53.796Z,13.00
2018-05-27T21:22:21.158Z,12.20
2018-05-27T21:24:49.169Z,16.13
2018-05-27T21:27:17.440Z,12.70
2018-05-27T21:29:44.851Z,13.20
2018-05-27T21:32:12.205Z,13.17
2018-05-27T21:34:39.588Z,12.93
2018-05-27T21:37:07.064Z,12.90
2018-05-27T21:39:34.504Z,13.90
2018-05-27T21:42:02.169Z,13.90
2018-05-27T21:44:29.600Z,14.30
2018-05-27T21:46:56.954Z,14.23
2018-05-27T21:49:24.354Z,14.13
2018-05-27T21:51:51.790Z,13.20
2018-05-27T21:54:19.175Z,13.40
2018-05-27T21:56:46.571Z,13.47
2018-05-27T21:59:13.938Z,14.40
2018-05-27T22:01:41.516Z,13.97
2018-05-27T22:04:08.900Z,13.90
2018-05-27T22:06:36.263Z,13.93
2018-05-27T22:09:03.684Z,13.93
2018-05-27T22:11:31.104Z,14.50
2018-05-27T22:13:58.488Z,15.67
2018-05-27T22:16:25.941Z,15.70
2018-05-27T22:18:53.361Z,14.67
2018-05-27T22:21:20.864Z,15.90
2018-05-27T22:23:48.279Z,15.30
2018-05-27T22:26:15.713Z,15.57
2018-05-27T22:28:43.072Z,13.87
2018-05-27T22:31:10.453Z,16.30
2018-05-27T22:33:37.879Z,15.20
2018-05-27T22:36:05.368Z,16.40
2018-05-27T22:38:32.761Z,15.40
2018-05-27T22:41:00.175Z,14.57
2018-05-27T22:43:27.585Z,16.07
2018-05-27T22:45:55.036Z,17.30
2018-05-27T22:48:22.430Z,15.90
2018-05-27T22:50:49.821Z,16.53
2018-05-27T22:53:17.228Z,16.10
2018-05-27T22:55:44.621Z,15.93
2018-05-27T22:58:12.020Z,16.93
2018-05-27T23:00:39.448Z,17.30
2018-05-27T23:03:06.877Z,16.40
2018-05-27T23:05:34.888Z,17.53
2018-05-27T23:08:02.264Z,17.40
2018-05-27T23:10:29.651Z,16.70
2018-05-27T23:12:57.053Z,16.30
2018-05-27T23:15:24.538Z,16.37
2018-05-27T23:17:51.965Z,17.10
2018-05-27T23:20:19.368Z,17.60
2018-05-27T23:22:46.831Z,17.90
2018-05-27T23:25:14.244Z,17.00
2018-05-27T23:27:51.547Z,17.70
2018-05-27T23:30:18.989Z,17.50
2018-05-27T23:32:46.392Z,18.10
2018-05-27T23:35:13.752Z,18.33
2018-05-27T23:37:41.180Z,18.10
2018-05-27T23:40:08.548Z,18.70
2018-05-27T23:42:35.965Z,18.80
2018-05-27T23:45:03.352Z,18.50
2018-05-27T23:47:30.779Z,19.20
2018-05-27T23:49:58.221Z,19.00
2018-05-27T23:52:25.597Z,19.47
2018-05-27T23:54:52.946Z,19.47
2018-05-27T23:57:20.327Z,20.80
2018-05-27T23:59:47.750Z,19.73
